sensor_id;sensor_type;location;lat;lon;timestamp;pressure;altitude;pressure_sealevel;temperature;humidity
37892;BME280;45797;47.466;9.486;2023-03-22T00:00:58;95654.50;;;13.82;51.34
37892;BME280;45797;47.466;9.486;2023-03-22T00:05:58;95652.88;;;13.90;51.04
37892;BME280;45797;47.466;9.486;2023-03-22T00:11:01;95648.75;;;14.07;50.97
37892;BME280;45797;47.466;9.486;2023-03-22T00:16:02;95663.19;;;13.72;51.82
37892;BME280;45797;47.466;9.486;2023-03-22T00:21:04;95678.41;;;13.59;52.15
37892;BME280;45797;47.466;9.486;2023-03-22T00:26:10;95690.69;;;13.49;52.14
37892;BME280;45797;47.466;9.486;2023-03-22T00:31:11;95705.44;;;13.40;52.37
37892;BME280;45797;47.466;9.486;2023-03-22T00:36:17;95695.19;;;13.37;52.60
37892;BME280;45797;47.466;9.486;2023-03-22T00:41:20;95682.56;;;13.31;53.01
37892;BME280;45797;47.466;9.486;2023-03-22T00:46:23;95669.81;;;13.27;53.05
37892;BME280;45797;47.466;9.486;2023-03-22T00:51:26;95663.13;;;13.23;53.23
37892;BME280;45797;47.466;9.486;2023-03-22T00:56:31;95654.78;;;13.18;53.17
37892;BME280;45797;47.466;9.486;2023-03-22T01:01:45;95656.94;;;13.12;53.28
37892;BME280;45797;47.466;9.486;2023-03-22T01:06:48;95656.09;;;13.12;53.41
37892;BME280;45797;47.466;9.486;2023-03-22T01:11:49;95653.03;;;13.07;53.60
37892;BME280;45797;47.466;9.486;2023-03-22T01:16:50;95659.50;;;13.03;53.57
37892;BME280;45797;47.466;9.486;2023-03-22T01:22:00;95660.47;;;13.02;53.43
37892;BME280;45797;47.466;9.486;2023-03-22T01:27:27;95660.97;;;12.96;53.34
37892;BME280;45797;47.466;9.486;2023-03-22T01:32:27;95653.91;;;12.96;53.13
37892;BME280;45797;47.466;9.486;2023-03-22T01:37:31;95649.41;;;12.98;53.41
37892;BME280;45797;47.466;9.486;2023-03-22T01:42:39;95649.75;;;12.94;54.04
37892;BME280;45797;47.466;9.486;2023-03-22T01:47:57;95654.00;;;12.85;53.88
37892;BME280;45797;47.466;9.486;2023-03-22T01:53:00;95643.97;;;12.79;53.95
37892;BME280;45797;47.466;9.486;2023-03-22T01:58:08;95642.97;;;12.70;54.06
37892;BME280;45797;47.466;9.486;2023-03-22T02:03:25;95644.44;;;12.63;53.93
37892;BME280;45797;47.466;9.486;2023-03-22T02:08:36;95636.00;;;12.48;54.61
37892;BME280;45797;47.466;9.486;2023-03-22T02:46:29;95629.16;;;11.93;55.21
37892;BME280;45797;47.466;9.486;2023-03-22T02:51:41;95638.81;;;11.92;55.40
37892;BME280;45797;47.466;9.486;2023-03-22T02:56:48;95640.38;;;11.84;55.77
37892;BME280;45797;47.466;9.486;2023-03-22T03:01:56;95640.38;;;11.72;56.14
37892;BME280;45797;47.466;9.486;2023-03-22T03:07:08;95641.22;;;11.62;56.12
37892;BME280;45797;47.466;9.486;2023-03-22T03:12:26;95654.34;;;11.51;56.41
37892;BME280;45797;47.466;9.486;2023-03-22T03:23:59;95649.31;;;11.36;56.57
37892;BME280;45797;47.466;9.486;2023-03-22T03:28:49;95647.44;;;11.38;56.92
37892;BME280;45797;47.466;9.486;2023-03-22T03:39:20;95651.38;;;11.33;56.74
37892;BME280;45797;47.466;9.486;2023-03-22T03:44:23;95651.81;;;11.27;56.99
37892;BME280;45797;47.466;9.486;2023-03-22T03:49:23;95652.44;;;11.19;56.98
37892;BME280;45797;47.466;9.486;2023-03-22T03:54:24;95657.44;;;11.11;57.53
37892;BME280;45797;47.466;9.486;2023-03-22T03:59:31;95663.00;;;11.06;57.48
37892;BME280;45797;47.466;9.486;2023-03-22T04:04:35;95658.34;;;10.99;57.69
37892;BME280;45797;47.466;9.486;2023-03-22T04:09:37;95654.19;;;10.96;57.77
37892;BME280;45797;47.466;9.486;2023-03-22T04:15:02;95655.84;;;10.97;57.52
37892;BME280;45797;47.466;9.486;2023-03-22T04:20:04;95649.56;;;11.00;57.65
37892;BME280;45797;47.466;9.486;2023-03-22T04:25:08;95646.56;;;11.04;57.68
37892;BME280;45797;47.466;9.486;2023-03-22T04:30:24;95655.97;;;11.07;57.68
37892;BME280;45797;47.466;9.486;2023-03-22T04:35:46;95640.63;;;11.02;57.29
37892;BME280;45797;47.466;9.486;2023-03-22T04:40:50;95646.81;;;11.01;57.64
37892;BME280;45797;47.466;9.486;2023-03-22T04:46:15;95647.38;;;10.94;57.71
37892;BME280;45797;47.466;9.486;2023-03-22T04:51:27;95647.63;;;10.91;58.11
37892;BME280;45797;47.466;9.486;2023-03-22T04:56:56;95649.88;;;10.84;58.21
37892;BME280;45797;47.466;9.486;2023-03-22T05:02:01;95651.66;;;10.83;57.95
37892;BME280;45797;47.466;9.486;2023-03-22T05:07:15;95655.56;;;10.78;58.33
37892;BME280;45797;47.466;9.486;2023-03-22T05:12:21;95657.72;;;10.73;58.32
37892;BME280;45797;47.466;9.486;2023-03-22T05:17:25;95660.44;;;10.71;58.65
37892;BME280;45797;47.466;9.486;2023-03-22T05:22:29;95660.66;;;10.68;58.54
37892;BME280;45797;47.466;9.486;2023-03-22T05:27:32;95659.94;;;10.66;58.55
37892;BME280;45797;47.466;9.486;2023-03-22T05:32:48;95659.94;;;10.66;58.69
37892;BME280;45797;47.466;9.486;2023-03-22T05:37:56;95666.13;;;10.65;58.49
37892;BME280;45797;47.466;9.486;2023-03-22T05:43:02;95661.59;;;10.67;58.46
37892;BME280;45797;47.466;9.486;2023-03-22T05:48:08;95663.16;;;10.70;58.32
37892;BME280;45797;47.466;9.486;2023-03-22T05:53:10;95658.31;;;10.76;58.37
37892;BME280;45797;47.466;9.486;2023-03-22T05:58:40;95657.03;;;10.82;58.56
37892;BME280;45797;47.466;9.486;2023-03-22T06:03:43;95651.78;;;10.93;57.74
37892;BME280;45797;47.466;9.486;2023-03-22T06:08:54;95657.28;;;11.01;57.83
37892;BME280;45797;47.466;9.486;2023-03-22T06:13:57;95653.03;;;11.11;57.79
37892;BME280;45797;47.466;9.486;2023-03-22T06:19:03;95654.22;;;11.19;57.94
37892;BME280;45797;47.466;9.486;2023-03-22T06:24:05;95656.72;;;11.31;57.95
37892;BME280;45797;47.466;9.486;2023-03-22T06:29:07;95658.66;;;11.40;58.01
37892;BME280;45797;47.466;9.486;2023-03-22T06:34:08;95649.34;;;11.59;57.33
37892;BME280;45797;47.466;9.486;2023-03-22T06:39:16;95647.06;;;11.77;57.52
37892;BME280;45797;47.466;9.486;2023-03-22T06:44:20;95638.47;;;11.97;57.41
37892;BME280;45797;47.466;9.486;2023-03-22T06:49:26;95646.97;;;12.21;56.26
37892;BME280;45797;47.466;9.486;2023-03-22T06:54:37;95650.66;;;12.30;56.24
37892;BME280;45797;47.466;9.486;2023-03-22T06:59:39;95652.53;;;12.39;55.98
37892;BME280;45797;47.466;9.486;2023-03-22T07:04:39;95655.56;;;12.55;56.55
37892;BME280;45797;47.466;9.486;2023-03-22T07:09:40;95655.53;;;12.67;56.38
37892;BME280;45797;47.466;9.486;2023-03-22T07:14:43;95655.09;;;12.82;56.20
37892;BME280;45797;47.466;9.486;2023-03-22T07:19:56;95666.84;;;12.99;55.79
37892;BME280;45797;47.466;9.486;2023-03-22T07:25:01;95666.72;;;13.22;55.47
37892;BME280;45797;47.466;9.486;2023-03-22T07:30:04;95661.97;;;13.36;55.27
37892;BME280;45797;47.466;9.486;2023-03-22T07:35:09;95664.38;;;13.49;55.13
37892;BME280;45797;47.466;9.486;2023-03-22T07:40:27;95673.31;;;13.67;54.77
37892;BME280;45797;47.466;9.486;2023-03-22T07:45:31;95665.47;;;13.87;54.26
37892;BME280;45797;47.466;9.486;2023-03-22T07:50:54;95669.97;;;14.06;53.99
37892;BME280;45797;47.466;9.486;2023-03-22T07:56:03;95664.75;;;14.25;53.65
37892;BME280;45797;47.466;9.486;2023-03-22T08:01:06;95664.47;;;14.38;53.32
37892;BME280;45797;47.466;9.486;2023-03-22T08:06:28;95667.72;;;14.51;53.20
37892;BME280;45797;47.466;9.486;2023-03-22T08:11:44;95664.13;;;14.62;53.08
37892;BME280;45797;47.466;9.486;2023-03-22T08:16:52;95667.31;;;14.75;52.96
37892;BME280;45797;47.466;9.486;2023-03-22T08:21:58;95672.44;;;14.86;52.62
37892;BME280;45797;47.466;9.486;2023-03-22T08:27:26;95668.25;;;14.93;52.49
37892;BME280;45797;47.466;9.486;2023-03-22T08:32:36;95667.72;;;14.99;52.57
37892;BME280;45797;47.466;9.486;2023-03-22T08:37:39;95662.28;;;15.01;52.25
37892;BME280;45797;47.466;9.486;2023-03-22T08:42:49;95654.22;;;15.12;52.00
37892;BME280;45797;47.466;9.486;2023-03-22T08:47:51;95657.13;;;15.19;52.06
37892;BME280;45797;47.466;9.486;2023-03-22T08:52:56;95652.81;;;15.27;51.89
37892;BME280;45797;47.466;9.486;2023-03-22T08:58:05;95648.72;;;15.42;51.57
37892;BME280;45797;47.466;9.486;2023-03-22T09:03:13;95647.59;;;15.55;51.31
37892;BME280;45797;47.466;9.486;2023-03-22T09:08:15;95626.00;;;15.69;51.24
37892;BME280;45797;47.466;9.486;2023-03-22T09:13:21;95621.91;;;15.84;50.90
37892;BME280;45797;47.466;9.486;2023-03-22T09:18:35;95614.16;;;16.00;50.53
37892;BME280;45797;47.466;9.486;2023-03-22T09:23:42;95619.84;;;16.06;50.48
37892;BME280;45797;47.466;9.486;2023-03-22T09:28:50;95609.03;;;16.17;50.42
37892;BME280;45797;47.466;9.486;2023-03-22T09:33:51;95616.09;;;16.26;50.75
37892;BME280;45797;47.466;9.486;2023-03-22T09:38:53;95611.41;;;16.38;49.71
37892;BME280;45797;47.466;9.486;2023-03-22T09:44:08;95617.50;;;16.38;50.11
37892;BME280;45797;47.466;9.486;2023-03-22T09:49:23;95611.94;;;16.41;50.00
37892;BME280;45797;47.466;9.486;2023-03-22T09:54:35;95611.41;;;16.55;49.60
37892;BME280;45797;47.466;9.486;2023-03-22T09:59:54;95603.03;;;16.78;49.31
37892;BME280;45797;47.466;9.486;2023-03-22T10:10:26;95605.72;;;16.86;49.02
37892;BME280;45797;47.466;9.486;2023-03-22T10:15:42;95605.28;;;16.91;48.70
37892;BME280;45797;47.466;9.486;2023-03-22T10:21:03;95616.44;;;17.02;48.68
37892;BME280;45797;47.466;9.486;2023-03-22T10:26:23;95617.69;;;16.90;48.52
37892;BME280;45797;47.466;9.486;2023-03-22T10:31:27;95620.56;;;16.97;48.75
37892;BME280;45797;47.466;9.486;2023-03-22T10:36:33;95604.97;;;17.20;48.13
37892;BME280;45797;47.466;9.486;2023-03-22T10:41:39;95594.19;;;17.39;47.69
37892;BME280;45797;47.466;9.486;2023-03-22T10:46:47;95593.06;;;17.50;47.56
37892;BME280;45797;47.466;9.486;2023-03-22T10:51:50;95589.59;;;17.75;47.19
37892;BME280;45797;47.466;9.486;2023-03-22T10:57:02;95586.88;;;18.01;46.90
37892;BME280;45797;47.466;9.486;2023-03-22T11:02:04;95581.75;;;18.24;46.50
37892;BME280;45797;47.466;9.486;2023-03-22T11:07:04;95567.03;;;18.46;46.32
37892;BME280;45797;47.466;9.486;2023-03-22T11:12:11;95564.44;;;18.78;45.94
37892;BME280;45797;47.466;9.486;2023-03-22T11:17:19;95551.16;;;18.87;45.43
37892;BME280;45797;47.466;9.486;2023-03-22T11:22:34;95547.00;;;18.84;46.15
37892;BME280;45797;47.466;9.486;2023-03-22T11:33:20;95522.47;;;19.46;44.61
37892;BME280;45797;47.466;9.486;2023-03-22T11:38:39;95517.44;;;19.59;44.98
37892;BME280;45797;47.466;9.486;2023-03-22T11:43:45;95514.69;;;19.83;44.59
37892;BME280;45797;47.466;9.486;2023-03-22T11:49:07;95508.41;;;19.99;44.43
37892;BME280;45797;47.466;9.486;2023-03-22T12:00:06;95496.75;;;20.31;43.95
37892;BME280;45797;47.466;9.486;2023-03-22T12:05:16;95496.94;;;20.52;43.82
37892;BME280;45797;47.466;9.486;2023-03-22T12:10:24;95490.47;;;20.70;43.31
37892;BME280;45797;47.466;9.486;2023-03-22T12:15:29;95486.28;;;20.90;43.49
37892;BME280;45797;47.466;9.486;2023-03-22T12:20:39;95474.53;;;21.14;43.17
37892;BME280;45797;47.466;9.486;2023-03-22T12:25:49;95474.66;;;21.35;42.79
37892;BME280;45797;47.466;9.486;2023-03-22T12:31:04;95459.44;;;21.51;42.68
37892;BME280;45797;47.466;9.486;2023-03-22T12:36:09;95465.81;;;21.86;42.24
37892;BME280;45797;47.466;9.486;2023-03-22T12:41:25;95456.97;;;22.00;42.13
37892;BME280;45797;47.466;9.486;2023-03-22T12:46:32;95445.69;;;22.19;42.01
37892;BME280;45797;47.466;9.486;2023-03-22T12:51:33;95438.41;;;22.35;41.99
37892;BME280;45797;47.466;9.486;2023-03-22T12:56:38;95433.84;;;22.78;41.21
37892;BME280;45797;47.466;9.486;2023-03-22T13:01:47;95413.53;;;22.84;40.92
37892;BME280;45797;47.466;9.486;2023-03-22T13:27:54;95391.06;;;23.54;40.43
37892;BME280;45797;47.466;9.486;2023-03-22T13:38:17;95391.78;;;23.69;40.50
37892;BME280;45797;47.466;9.486;2023-03-22T13:43:26;95384.84;;;24.08;39.77
37892;BME280;45797;47.466;9.486;2023-03-22T13:59:30;95392.06;;;23.46;40.69
37892;BME280;45797;47.466;9.486;2023-03-22T14:10:06;95389.50;;;23.59;40.22
37892;BME280;45797;47.466;9.486;2023-03-22T14:15:15;95390.53;;;23.72;39.98
37892;BME280;45797;47.466;9.486;2023-03-22T14:20:29;95377.16;;;23.78;40.35
37892;BME280;45797;47.466;9.486;2023-03-22T14:25:34;95380.91;;;23.90;39.54
37892;BME280;45797;47.466;9.486;2023-03-22T14:30:42;95376.84;;;23.47;40.66
37892;BME280;45797;47.466;9.486;2023-03-22T14:35:53;95373.63;;;23.10;40.81
37892;BME280;45797;47.466;9.486;2023-03-22T14:41:25;95354.06;;;23.03;40.80
37892;BME280;45797;47.466;9.486;2023-03-22T14:46:35;95356.00;;;23.29;40.07
37892;BME280;45797;47.466;9.486;2023-03-22T14:51:52;95354.06;;;23.51;39.81
37892;BME280;45797;47.466;9.486;2023-03-22T14:57:03;95352.69;;;23.75;39.25
37892;BME280;45797;47.466;9.486;2023-03-22T15:13:16;95352.44;;;24.95;37.25
37892;BME280;45797;47.466;9.486;2023-03-22T15:18:18;95341.72;;;24.95;37.42
37892;BME280;45797;47.466;9.486;2023-03-22T15:23:48;95340.09;;;24.94;37.67
37892;BME280;45797;47.466;9.486;2023-03-22T15:28:54;95340.88;;;25.01;37.40
37892;BME280;45797;47.466;9.486;2023-03-22T15:33:59;95341.97;;;25.39;37.03
37892;BME280;45797;47.466;9.486;2023-03-22T15:39:34;95328.50;;;25.90;35.94
37892;BME280;45797;47.466;9.486;2023-03-22T15:44:38;95329.72;;;25.94;35.63
37892;BME280;45797;47.466;9.486;2023-03-22T15:49:47;95336.47;;;25.72;35.74
37892;BME280;45797;47.466;9.486;2023-03-22T15:55:13;95332.97;;;25.64;35.85
37892;BME280;45797;47.466;9.486;2023-03-22T16:00:32;95327.91;;;25.88;35.91
37892;BME280;45797;47.466;9.486;2023-03-22T16:05:38;95331.53;;;26.00;35.62
37892;BME280;45797;47.466;9.486;2023-03-22T16:10:42;95324.13;;;25.96;35.26
37892;BME280;45797;47.466;9.486;2023-03-22T16:15:49;95328.59;;;25.77;35.64
37892;BME280;45797;47.466;9.486;2023-03-22T16:20:52;95329.47;;;25.64;35.60
37892;BME280;45797;47.466;9.486;2023-03-22T16:25:55;95330.47;;;25.70;35.39
37892;BME280;45797;47.466;9.486;2023-03-22T16:30:57;95327.63;;;25.96;35.56
37892;BME280;45797;47.466;9.486;2023-03-22T16:36:04;95335.44;;;26.29;34.92
37892;BME280;45797;47.466;9.486;2023-03-22T16:41:23;95338.72;;;26.06;35.46
37892;BME280;45797;47.466;9.486;2023-03-22T16:46:25;95344.59;;;25.97;35.91
37892;BME280;45797;47.466;9.486;2023-03-22T16:51:27;95339.81;;;25.60;36.66
37892;BME280;45797;47.466;9.486;2023-03-22T16:56:40;95331.31;;;25.25;36.81
37892;BME280;45797;47.466;9.486;2023-03-22T17:01:42;95343.81;;;24.80;37.45
37892;BME280;45797;47.466;9.486;2023-03-22T17:06:44;95329.88;;;24.18;37.85
37892;BME280;45797;47.466;9.486;2023-03-22T17:11:55;95335.13;;;23.52;38.61
37892;BME280;45797;47.466;9.486;2023-03-22T17:16:55;95333.03;;;22.87;39.59
37892;BME280;45797;47.466;9.486;2023-03-22T17:22:04;95328.63;;;22.16;40.55
37892;BME280;45797;47.466;9.486;2023-03-22T17:27:08;95338.44;;;21.45;41.10
37892;BME280;45797;47.466;9.486;2023-03-22T17:32:14;95343.13;;;20.77;41.81
37892;BME280;45797;47.466;9.486;2023-03-22T17:37:19;95345.31;;;20.07;42.63
37892;BME280;45797;47.466;9.486;2023-03-22T17:42:20;95347.47;;;19.43;43.32
37892;BME280;45797;47.466;9.486;2023-03-22T17:47:20;95355.56;;;18.87;43.92
37892;BME280;45797;47.466;9.486;2023-03-22T17:52:23;95365.13;;;18.41;44.14
37892;BME280;45797;47.466;9.486;2023-03-22T17:57:29;95374.13;;;17.99;44.80
37892;BME280;45797;47.466;9.486;2023-03-22T18:02:29;95364.66;;;17.64;45.16
37892;BME280;45797;47.466;9.486;2023-03-22T18:07:30;95375.88;;;17.41;45.46
37892;BME280;45797;47.466;9.486;2023-03-22T18:12:43;95377.00;;;17.23;44.99
37892;BME280;45797;47.466;9.486;2023-03-22T18:17:45;95376.47;;;17.11;45.16
37892;BME280;45797;47.466;9.486;2023-03-22T18:22:48;95375.63;;;17.02;45.14
37892;BME280;45797;47.466;9.486;2023-03-22T18:27:49;95377.41;;;16.94;44.88
37892;BME280;45797;47.466;9.486;2023-03-22T18:32:51;95375.41;;;16.88;44.82
37892;BME280;45797;47.466;9.486;2023-03-22T18:37:52;95373.41;;;16.81;45.09
37892;BME280;45797;47.466;9.486;2023-03-22T18:42:53;95373.03;;;16.76;45.17
37892;BME280;45797;47.466;9.486;2023-03-22T18:47:55;95372.38;;;16.74;44.96
37892;BME280;45797;47.466;9.486;2023-03-22T18:52:55;95376.81;;;16.74;44.54
37892;BME280;45797;47.466;9.486;2023-03-22T18:57:55;95381.28;;;16.73;45.02
37892;BME280;45797;47.466;9.486;2023-03-22T19:02:57;95373.69;;;16.70;44.71
37892;BME280;45797;47.466;9.486;2023-03-22T19:07:58;95382.44;;;16.71;44.85
37892;BME280;45797;47.466;9.486;2023-03-22T19:12:58;95376.50;;;16.69;44.55
37892;BME280;45797;47.466;9.486;2023-03-22T19:17:59;95379.81;;;16.71;44.50
37892;BME280;45797;47.466;9.486;2023-03-22T19:22:59;95376.00;;;16.73;44.54
37892;BME280;45797;47.466;9.486;2023-03-22T19:27:59;95382.13;;;16.74;44.80
37892;BME280;45797;47.466;9.486;2023-03-22T19:33:00;95386.13;;;16.78;44.63
37892;BME280;45797;47.466;9.486;2023-03-22T19:38:02;95380.66;;;16.79;44.62
37892;BME280;45797;47.466;9.486;2023-03-22T19:43:02;95382.31;;;16.80;44.89
37892;BME280;45797;47.466;9.486;2023-03-22T19:48:03;95385.63;;;16.82;44.38
37892;BME280;45797;47.466;9.486;2023-03-22T19:53:14;95382.97;;;16.82;44.45
37892;BME280;45797;47.466;9.486;2023-03-22T19:58:50;95377.03;;;16.80;44.37
37892;BME280;45797;47.466;9.486;2023-03-22T20:03:51;95374.88;;;16.84;44.27
37892;BME280;45797;47.466;9.486;2023-03-22T20:08:55;95370.25;;;16.86;44.41
37892;BME280;45797;47.466;9.486;2023-03-22T20:14:05;95370.59;;;16.83;44.10
37892;BME280;45797;47.466;9.486;2023-03-22T20:19:14;95362.66;;;16.83;44.08
37892;BME280;45797;47.466;9.486;2023-03-22T20:24:16;95375.06;;;16.82;44.09
37892;BME280;45797;47.466;9.486;2023-03-22T20:29:18;95380.72;;;16.88;43.88
37892;BME280;45797;47.466;9.486;2023-03-22T20:34:19;95388.13;;;16.84;44.05
37892;BME280;45797;47.466;9.486;2023-03-22T20:39:22;95381.16;;;16.83;43.91
37892;BME280;45797;47.466;9.486;2023-03-22T20:44:41;95378.84;;;16.80;43.93
37892;BME280;45797;47.466;9.486;2023-03-22T20:49:43;95375.38;;;16.79;43.92
37892;BME280;45797;47.466;9.486;2023-03-22T20:54:48;95376.00;;;16.73;44.21
37892;BME280;45797;47.466;9.486;2023-03-22T20:59:52;95379.63;;;16.72;43.81
37892;BME280;45797;47.466;9.486;2023-03-22T21:04:52;95393.84;;;16.71;44.07
37892;BME280;45797;47.466;9.486;2023-03-22T21:09:59;95396.75;;;16.60;44.19
37892;BME280;45797;47.466;9.486;2023-03-22T21:15:01;95399.84;;;16.29;45.27
37892;BME280;45797;47.466;9.486;2023-03-22T21:20:09;95409.44;;;16.05;45.83
37892;BME280;45797;47.466;9.486;2023-03-22T21:25:10;95403.66;;;15.83;46.08
37892;BME280;45797;47.466;9.486;2023-03-22T21:30:11;95405.16;;;15.68;46.49
37892;BME280;45797;47.466;9.486;2023-03-22T21:35:11;95403.72;;;15.56;46.53
37892;BME280;45797;47.466;9.486;2023-03-22T21:40:12;95403.06;;;15.44;46.48
37892;BME280;45797;47.466;9.486;2023-03-22T21:45:19;95400.38;;;15.36;46.87
37892;BME280;45797;47.466;9.486;2023-03-22T21:50:21;95388.91;;;15.27;46.78
37892;BME280;45797;47.466;9.486;2023-03-22T21:55:21;95382.94;;;15.25;46.91
37892;BME280;45797;47.466;9.486;2023-03-22T22:00:25;95383.09;;;15.24;47.06
37892;BME280;45797;47.466;9.486;2023-03-22T22:05:32;95372.31;;;15.17;47.00
37892;BME280;45797;47.466;9.486;2023-03-22T22:10:33;95372.91;;;15.11;47.24
37892;BME280;45797;47.466;9.486;2023-03-22T22:15:44;95377.09;;;15.04;47.04
37892;BME280;45797;47.466;9.486;2023-03-22T22:21:12;95378.59;;;14.89;47.43
37892;BME280;45797;47.466;9.486;2023-03-22T22:26:14;95382.78;;;14.81;47.98
37892;BME280;45797;47.466;9.486;2023-03-22T22:31:16;95391.88;;;14.69;48.10
37892;BME280;45797;47.466;9.486;2023-03-22T22:36:20;95389.66;;;14.65;48.29
37892;BME280;45797;47.466;9.486;2023-03-22T22:41:31;95380.00;;;14.55;48.34
37892;BME280;45797;47.466;9.486;2023-03-22T22:46:32;95382.25;;;14.50;48.70
37892;BME280;45797;47.466;9.486;2023-03-22T22:51:48;95371.72;;;14.41;48.16
37892;BME280;45797;47.466;9.486;2023-03-22T22:56:53;95370.88;;;14.40;48.48
37892;BME280;45797;47.466;9.486;2023-03-22T23:01:55;95376.41;;;14.37;48.54
37892;BME280;45797;47.466;9.486;2023-03-22T23:12:30;95388.25;;;14.23;49.22
37892;BME280;45797;47.466;9.486;2023-03-22T23:17:31;95395.75;;;14.18;48.72
37892;BME280;45797;47.466;9.486;2023-03-22T23:22:32;95391.75;;;14.14;49.25
37892;BME280;45797;47.466;9.486;2023-03-22T23:27:39;95387.72;;;14.10;49.46
37892;BME280;45797;47.466;9.486;2023-03-22T23:32:46;95395.25;;;14.05;49.69
37892;BME280;45797;47.466;9.486;2023-03-22T23:37:47;95393.16;;;13.99;50.17
37892;BME280;45797;47.466;9.486;2023-03-22T23:42:57;95392.06;;;13.92;49.88
37892;BME280;45797;47.466;9.486;2023-03-22T23:47:59;95392.63;;;13.86;50.23
37892;BME280;45797;47.466;9.486;2023-03-22T23:53:03;95395.81;;;13.80;50.40
37892;BME280;45797;47.466;9.486;2023-03-22T23:58:09;95407.63;;;13.76;50.40
